sensor_id;sensor_type;location;lat;lon;timestamp;temperature;humidity
17988;DHT22;9119;50.932;5.342;2023-03-16T00:02:05;5.80;99.90
17988;DHT22;9119;50.932;5.342;2023-03-16T00:04:31;5.80;99.90
17988;DHT22;9119;50.932;5.342;2023-03-16T00:07:08;5.80;99.90
17988;DHT22;9119;50.932;5.342;2023-03-16T00:09:35;5.80;99.90
17988;DHT22;9119;50.932;5.342;2023-03-16T00:12:06;5.70;99.90
17988;DHT22;9119;50.932;5.342;2023-03-16T00:14:32;5.70;99.90
17988;DHT22;9119;50.932;5.342;2023-03-16T00:17:00;5.80;99.90
17988;DHT22;9119;50.932;5.342;2023-03-16T00:19:26;5.90;99.90
17988;DHT22;9119;50.932;5.342;2023-03-16T00:21:52;5.90;99.90
17988;DHT22;9119;50.932;5.342;2023-03-16T00:24:18;5.90;99.90
17988;DHT22;9119;50.932;5.342;2023-03-16T00:26:47;5.80;99.90
17988;DHT22;9119;50.932;5.342;2023-03-16T00:29:13;5.90;99.90
17988;DHT22;9119;50.932;5.342;2023-03-16T00:31:40;5.90;99.90
17988;DHT22;9119;50.932;5.342;2023-03-16T00:34:09;5.90;99.90
17988;DHT22;9119;50.932;5.342;2023-03-16T00:36:35;5.90;99.90
17988;DHT22;9119;50.932;5.342;2023-03-16T00:39:03;5.90;99.90
17988;DHT22;9119;50.932;5.342;2023-03-16T00:41:29;5.90;99.90
17988;DHT22;9119;50.932;5.342;2023-03-16T00:43:55;5.80;99.90
17988;DHT22;9119;50.932;5.342;2023-03-16T00:46:21;5.90;99.90
17988;DHT22;9119;50.932;5.342;2023-03-16T00:48:50;5.90;99.90
17988;DHT22;9119;50.932;5.342;2023-03-16T00:51:17;5.90;99.90
17988;DHT22;9119;50.932;5.342;2023-03-16T00:53:45;5.90;99.90
17988;DHT22;9119;50.932;5.342;2023-03-16T00:56:11;5.90;99.90
17988;DHT22;9119;50.932;5.342;2023-03-16T00:58:39;5.90;99.90
17988;DHT22;9119;50.932;5.342;2023-03-16T01:01:18;6.00;99.90
17988;DHT22;9119;50.932;5.342;2023-03-16T01:03:44;6.00;99.90
17988;DHT22;9119;50.932;5.342;2023-03-16T01:06:15;6.00;99.90
17988;DHT22;9119;50.932;5.342;2023-03-16T01:08:42;5.90;99.90
17988;DHT22;9119;50.932;5.342;2023-03-16T01:11:11;6.00;99.90
17988;DHT22;9119;50.932;5.342;2023-03-16T01:13:38;6.00;99.90
17988;DHT22;9119;50.932;5.342;2023-03-16T01:16:04;6.00;99.90
17988;DHT22;9119;50.932;5.342;2023-03-16T01:18:31;6.00;99.90
17988;DHT22;9119;50.932;5.342;2023-03-16T01:21:04;6.00;99.90
17988;DHT22;9119;50.932;5.342;2023-03-16T01:23:30;6.00;99.90
17988;DHT22;9119;50.932;5.342;2023-03-16T01:25:57;6.00;99.90
17988;DHT22;9119;50.932;5.342;2023-03-16T01:28:26;6.00;99.90
17988;DHT22;9119;50.932;5.342;2023-03-16T01:30:53;6.00;99.90
17988;DHT22;9119;50.932;5.342;2023-03-16T01:33:23;6.10;99.90
17988;DHT22;9119;50.932;5.342;2023-03-16T01:36:04;6.10;99.90
17988;DHT22;9119;50.932;5.342;2023-03-16T01:38:30;6.00;99.90
17988;DHT22;9119;50.932;5.342;2023-03-16T01:40:56;6.10;99.90
17988;DHT22;9119;50.932;5.342;2023-03-16T01:43:24;6.00;99.90
17988;DHT22;9119;50.932;5.342;2023-03-16T01:48:38;6.10;99.90
17988;DHT22;9119;50.932;5.342;2023-03-16T01:51:58;6.10;99.90
17988;DHT22;9119;50.932;5.342;2023-03-16T01:54:30;6.10;99.90
17988;DHT22;9119;50.932;5.342;2023-03-16T01:57:01;6.10;99.90
17988;DHT22;9119;50.932;5.342;2023-03-16T01:59:36;6.10;99.90
17988;DHT22;9119;50.932;5.342;2023-03-16T02:02:04;6.20;99.90
17988;DHT22;9119;50.932;5.342;2023-03-16T02:07:18;6.20;99.90
17988;DHT22;9119;50.932;5.342;2023-03-16T02:09:47;6.20;99.90
17988;DHT22;9119;50.932;5.342;2023-03-16T02:12:15;6.20;99.90
17988;DHT22;9119;50.932;5.342;2023-03-16T02:14:49;6.20;99.90
17988;DHT22;9119;50.932;5.342;2023-03-16T02:17:17;6.20;99.90
17988;DHT22;9119;50.932;5.342;2023-03-16T02:22:46;6.20;99.90
17988;DHT22;9119;50.932;5.342;2023-03-16T02:25:16;6.20;99.90
17988;DHT22;9119;50.932;5.342;2023-03-16T02:28:14;6.20;99.90
17988;DHT22;9119;50.932;5.342;2023-03-16T02:30:43;6.30;99.90
17988;DHT22;9119;50.932;5.342;2023-03-16T02:33:10;6.20;99.90
17988;DHT22;9119;50.932;5.342;2023-03-16T02:35:36;6.30;99.90
17988;DHT22;9119;50.932;5.342;2023-03-16T02:38:01;6.30;99.90
17988;DHT22;9119;50.932;5.342;2023-03-16T02:40:29;6.40;99.90
17988;DHT22;9119;50.932;5.342;2023-03-16T02:43:01;6.40;99.90
17988;DHT22;9119;50.932;5.342;2023-03-16T02:45:56;6.40;99.90
17988;DHT22;9119;50.932;5.342;2023-03-16T02:48:32;6.30;99.90
17988;DHT22;9119;50.932;5.342;2023-03-16T02:51:00;6.30;99.90
17988;DHT22;9119;50.932;5.342;2023-03-16T02:53:26;6.30;99.90
17988;DHT22;9119;50.932;5.342;2023-03-16T02:55:51;6.30;99.90
17988;DHT22;9119;50.932;5.342;2023-03-16T02:58:18;6.30;99.90
17988;DHT22;9119;50.932;5.342;2023-03-16T03:00:44;6.40;99.90
17988;DHT22;9119;50.932;5.342;2023-03-16T03:03:12;6.40;99.90
17988;DHT22;9119;50.932;5.342;2023-03-16T03:05:38;6.40;99.90
17988;DHT22;9119;50.932;5.342;2023-03-16T03:08:05;6.30;99.90
17988;DHT22;9119;50.932;5.342;2023-03-16T03:10:31;6.40;99.90
17988;DHT22;9119;50.932;5.342;2023-03-16T03:12:57;6.40;99.90
17988;DHT22;9119;50.932;5.342;2023-03-16T03:15:23;6.40;99.90
17988;DHT22;9119;50.932;5.342;2023-03-16T03:17:49;6.40;99.90
17988;DHT22;9119;50.932;5.342;2023-03-16T03:20:15;6.50;99.90
17988;DHT22;9119;50.932;5.342;2023-03-16T03:22:44;6.40;99.90
17988;DHT22;9119;50.932;5.342;2023-03-16T03:25:11;6.40;99.90
17988;DHT22;9119;50.932;5.342;2023-03-16T03:27:38;6.40;99.90
17988;DHT22;9119;50.932;5.342;2023-03-16T03:30:08;6.30;99.90
17988;DHT22;9119;50.932;5.342;2023-03-16T03:32:34;6.30;99.90
17988;DHT22;9119;50.932;5.342;2023-03-16T03:35:00;6.40;99.90
17988;DHT22;9119;50.932;5.342;2023-03-16T03:37:26;6.50;99.90
17988;DHT22;9119;50.932;5.342;2023-03-16T03:39:51;6.50;99.90
17988;DHT22;9119;50.932;5.342;2023-03-16T03:42:18;6.50;99.90
17988;DHT22;9119;50.932;5.342;2023-03-16T03:44:43;6.70;99.90
17988;DHT22;9119;50.932;5.342;2023-03-16T03:47:09;6.60;99.90
17988;DHT22;9119;50.932;5.342;2023-03-16T03:49:35;6.50;99.90
17988;DHT22;9119;50.932;5.342;2023-03-16T03:52:00;6.50;99.90
17988;DHT22;9119;50.932;5.342;2023-03-16T03:54:29;6.50;99.90
17988;DHT22;9119;50.932;5.342;2023-03-16T03:56:55;6.50;99.90
17988;DHT22;9119;50.932;5.342;2023-03-16T03:59:21;6.40;99.90
17988;DHT22;9119;50.932;5.342;2023-03-16T04:01:47;6.40;99.90
17988;DHT22;9119;50.932;5.342;2023-03-16T04:04:13;6.50;99.90
17988;DHT22;9119;50.932;5.342;2023-03-16T04:06:39;6.40;99.90
17988;DHT22;9119;50.932;5.342;2023-03-16T04:09:06;6.40;99.90
17988;DHT22;9119;50.932;5.342;2023-03-16T04:11:32;6.40;99.90
17988;DHT22;9119;50.932;5.342;2023-03-16T04:13:58;6.40;99.90
17988;DHT22;9119;50.932;5.342;2023-03-16T04:16:24;6.40;99.90
17988;DHT22;9119;50.932;5.342;2023-03-16T04:18:52;6.30;99.90
17988;DHT22;9119;50.932;5.342;2023-03-16T04:21:19;6.40;99.90
17988;DHT22;9119;50.932;5.342;2023-03-16T04:23:46;6.40;99.90
17988;DHT22;9119;50.932;5.342;2023-03-16T04:26:12;6.30;99.90
17988;DHT22;9119;50.932;5.342;2023-03-16T04:28:38;6.30;99.90
17988;DHT22;9119;50.932;5.342;2023-03-16T04:31:06;6.30;99.90
17988;DHT22;9119;50.932;5.342;2023-03-16T04:33:37;6.30;99.90
17988;DHT22;9119;50.932;5.342;2023-03-16T04:36:04;6.20;99.90
17988;DHT22;9119;50.932;5.342;2023-03-16T04:38:31;6.30;99.90
17988;DHT22;9119;50.932;5.342;2023-03-16T04:41:01;6.20;99.90
17988;DHT22;9119;50.932;5.342;2023-03-16T04:43:28;6.30;99.90
17988;DHT22;9119;50.932;5.342;2023-03-16T04:45:54;6.30;99.90
17988;DHT22;9119;50.932;5.342;2023-03-16T04:48:20;6.20;99.90
17988;DHT22;9119;50.932;5.342;2023-03-16T04:50:49;6.30;99.90
17988;DHT22;9119;50.932;5.342;2023-03-16T04:53:14;6.30;99.90
17988;DHT22;9119;50.932;5.342;2023-03-16T04:55:40;6.20;99.90
17988;DHT22;9119;50.932;5.342;2023-03-16T04:58:06;6.20;99.90
17988;DHT22;9119;50.932;5.342;2023-03-16T05:00:31;6.30;99.90
17988;DHT22;9119;50.932;5.342;2023-03-16T05:02:57;6.20;99.90
17988;DHT22;9119;50.932;5.342;2023-03-16T05:05:23;6.20;99.90
17988;DHT22;9119;50.932;5.342;2023-03-16T05:07:49;6.30;99.90
17988;DHT22;9119;50.932;5.342;2023-03-16T05:10:16;6.30;99.90
17988;DHT22;9119;50.932;5.342;2023-03-16T05:12:43;6.30;99.90
17988;DHT22;9119;50.932;5.342;2023-03-16T05:15:10;6.20;99.90
17988;DHT22;9119;50.932;5.342;2023-03-16T05:17:36;6.20;99.90
17988;DHT22;9119;50.932;5.342;2023-03-16T05:20:02;6.20;99.90
17988;DHT22;9119;50.932;5.342;2023-03-16T05:22:32;6.20;99.90
17988;DHT22;9119;50.932;5.342;2023-03-16T05:24:59;6.20;99.90
17988;DHT22;9119;50.932;5.342;2023-03-16T05:27:28;6.20;99.90
17988;DHT22;9119;50.932;5.342;2023-03-16T05:29:54;6.20;99.90
17988;DHT22;9119;50.932;5.342;2023-03-16T05:32:20;6.20;99.90
17988;DHT22;9119;50.932;5.342;2023-03-16T05:34:46;6.40;99.90
17988;DHT22;9119;50.932;5.342;2023-03-16T05:37:11;6.30;99.90
17988;DHT22;9119;50.932;5.342;2023-03-16T05:39:37;6.30;99.90
17988;DHT22;9119;50.932;5.342;2023-03-16T05:42:03;6.20;99.90
17988;DHT22;9119;50.932;5.342;2023-03-16T05:44:31;6.30;99.90
17988;DHT22;9119;50.932;5.342;2023-03-16T05:46:57;6.20;99.90
17988;DHT22;9119;50.932;5.342;2023-03-16T05:49:23;6.20;99.90
17988;DHT22;9119;50.932;5.342;2023-03-16T05:51:49;6.20;99.90
17988;DHT22;9119;50.932;5.342;2023-03-16T05:54:14;6.30;99.90
17988;DHT22;9119;50.932;5.342;2023-03-16T05:56:40;6.30;99.90
17988;DHT22;9119;50.932;5.342;2023-03-16T05:59:06;6.30;99.90
17988;DHT22;9119;50.932;5.342;2023-03-16T06:01:32;6.30;99.90
17988;DHT22;9119;50.932;5.342;2023-03-16T06:03:58;6.30;99.90
17988;DHT22;9119;50.932;5.342;2023-03-16T06:06:24;6.30;99.90
17988;DHT22;9119;50.932;5.342;2023-03-16T06:08:50;6.30;99.90
17988;DHT22;9119;50.932;5.342;2023-03-16T06:11:16;6.40;99.90
17988;DHT22;9119;50.932;5.342;2023-03-16T06:13:42;6.40;99.90
17988;DHT22;9119;50.932;5.342;2023-03-16T06:16:07;6.40;99.90
17988;DHT22;9119;50.932;5.342;2023-03-16T06:18:35;6.40;99.90
17988;DHT22;9119;50.932;5.342;2023-03-16T06:21:01;6.40;99.90
17988;DHT22;9119;50.932;5.342;2023-03-16T06:23:28;6.40;99.90
17988;DHT22;9119;50.932;5.342;2023-03-16T06:25:54;6.50;99.90
17988;DHT22;9119;50.932;5.342;2023-03-16T06:28:20;6.40;99.90
17988;DHT22;9119;50.932;5.342;2023-03-16T06:30:46;6.50;99.90
17988;DHT22;9119;50.932;5.342;2023-03-16T06:33:12;6.50;99.90
17988;DHT22;9119;50.932;5.342;2023-03-16T06:35:38;6.50;99.90
17988;DHT22;9119;50.932;5.342;2023-03-16T06:38:04;6.50;99.90
17988;DHT22;9119;50.932;5.342;2023-03-16T06:40:29;6.50;99.90
17988;DHT22;9119;50.932;5.342;2023-03-16T06:42:55;6.50;99.90
17988;DHT22;9119;50.932;5.342;2023-03-16T06:45:21;6.50;99.90
17988;DHT22;9119;50.932;5.342;2023-03-16T06:47:47;6.50;99.90
17988;DHT22;9119;50.932;5.342;2023-03-16T06:50:13;6.50;99.90
17988;DHT22;9119;50.932;5.342;2023-03-16T06:52:39;6.60;99.90
17988;DHT22;9119;50.932;5.342;2023-03-16T06:55:06;6.50;99.90
17988;DHT22;9119;50.932;5.342;2023-03-16T06:57:32;6.50;99.90
17988;DHT22;9119;50.932;5.342;2023-03-16T06:59:58;6.50;99.90
17988;DHT22;9119;50.932;5.342;2023-03-16T07:02:24;6.50;99.90
17988;DHT22;9119;50.932;5.342;2023-03-16T07:04:49;6.60;99.90
17988;DHT22;9119;50.932;5.342;2023-03-16T07:07:15;6.60;99.90
17988;DHT22;9119;50.932;5.342;2023-03-16T07:09:44;6.70;99.90
17988;DHT22;9119;50.932;5.342;2023-03-16T07:12:10;6.70;99.90
17988;DHT22;9119;50.932;5.342;2023-03-16T07:14:36;6.70;99.90
17988;DHT22;9119;50.932;5.342;2023-03-16T07:17:01;6.70;99.90
17988;DHT22;9119;50.932;5.342;2023-03-16T07:19:27;6.70;99.90
17988;DHT22;9119;50.932;5.342;2023-03-16T07:21:53;6.70;99.90
17988;DHT22;9119;50.932;5.342;2023-03-16T07:24:19;6.70;99.90
17988;DHT22;9119;50.932;5.342;2023-03-16T07:26:45;6.70;99.90
17988;DHT22;9119;50.932;5.342;2023-03-16T07:29:12;6.70;99.90
17988;DHT22;9119;50.932;5.342;2023-03-16T07:31:38;6.70;99.90
17988;DHT22;9119;50.932;5.342;2023-03-16T07:34:04;6.80;99.90
17988;DHT22;9119;50.932;5.342;2023-03-16T07:36:30;6.80;99.90
17988;DHT22;9119;50.932;5.342;2023-03-16T07:38:57;6.80;99.90
17988;DHT22;9119;50.932;5.342;2023-03-16T07:41:22;6.90;99.90
17988;DHT22;9119;50.932;5.342;2023-03-16T07:43:50;6.90;99.90
17988;DHT22;9119;50.932;5.342;2023-03-16T07:46:15;6.90;99.90
17988;DHT22;9119;50.932;5.342;2023-03-16T07:48:43;7.00;99.90
17988;DHT22;9119;50.932;5.342;2023-03-16T07:51:10;7.00;99.90
17988;DHT22;9119;50.932;5.342;2023-03-16T07:53:36;7.10;99.90
17988;DHT22;9119;50.932;5.342;2023-03-16T07:56:02;7.10;99.90
17988;DHT22;9119;50.932;5.342;2023-03-16T07:58:28;7.10;99.90
17988;DHT22;9119;50.932;5.342;2023-03-16T08:00:58;7.10;99.90
17988;DHT22;9119;50.932;5.342;2023-03-16T08:03:25;7.20;99.90
17988;DHT22;9119;50.932;5.342;2023-03-16T08:05:51;7.20;99.90
17988;DHT22;9119;50.932;5.342;2023-03-16T08:08:17;7.30;99.90
17988;DHT22;9119;50.932;5.342;2023-03-16T08:10:46;7.30;99.90
17988;DHT22;9119;50.932;5.342;2023-03-16T08:13:12;7.40;99.90
17988;DHT22;9119;50.932;5.342;2023-03-16T08:15:38;7.40;99.90
17988;DHT22;9119;50.932;5.342;2023-03-16T08:18:04;7.50;99.90
17988;DHT22;9119;50.932;5.342;2023-03-16T08:20:31;7.50;99.90
17988;DHT22;9119;50.932;5.342;2023-03-16T08:22:57;7.50;99.90
17988;DHT22;9119;50.932;5.342;2023-03-16T08:25:23;7.60;99.90
17988;DHT22;9119;50.932;5.342;2023-03-16T08:27:49;7.60;99.90
17988;DHT22;9119;50.932;5.342;2023-03-16T08:30:15;7.70;99.90
17988;DHT22;9119;50.932;5.342;2023-03-16T08:32:41;7.70;99.90
17988;DHT22;9119;50.932;5.342;2023-03-16T08:35:09;7.80;99.90
17988;DHT22;9119;50.932;5.342;2023-03-16T08:37:36;7.90;99.90
17988;DHT22;9119;50.932;5.342;2023-03-16T08:40:03;8.00;99.90
17988;DHT22;9119;50.932;5.342;2023-03-16T08:42:34;8.30;99.90
17988;DHT22;9119;50.932;5.342;2023-03-16T08:45:00;8.50;99.90
17988;DHT22;9119;50.932;5.342;2023-03-16T08:47:34;8.60;99.90
17988;DHT22;9119;50.932;5.342;2023-03-16T08:50:00;8.70;99.90
17988;DHT22;9119;50.932;5.342;2023-03-16T08:52:29;9.00;99.90
17988;DHT22;9119;50.932;5.342;2023-03-16T08:54:56;9.10;99.90
17988;DHT22;9119;50.932;5.342;2023-03-16T08:57:22;9.10;99.90
17988;DHT22;9119;50.932;5.342;2023-03-16T08:59:48;9.00;99.90
17988;DHT22;9119;50.932;5.342;2023-03-16T09:02:15;9.00;99.90
17988;DHT22;9119;50.932;5.342;2023-03-16T09:04:41;8.80;99.90
17988;DHT22;9119;50.932;5.342;2023-03-16T09:07:07;8.80;99.90
17988;DHT22;9119;50.932;5.342;2023-03-16T09:09:33;8.90;99.90
17988;DHT22;9119;50.932;5.342;2023-03-16T09:12:00;9.10;99.90
17988;DHT22;9119;50.932;5.342;2023-03-16T09:14:26;9.20;99.90
17988;DHT22;9119;50.932;5.342;2023-03-16T09:16:52;9.40;99.90
17988;DHT22;9119;50.932;5.342;2023-03-16T09:19:19;9.40;99.90
17988;DHT22;9119;50.932;5.342;2023-03-16T09:21:45;9.40;99.90
17988;DHT22;9119;50.932;5.342;2023-03-16T09:24:11;9.20;99.90
17988;DHT22;9119;50.932;5.342;2023-03-16T09:26:39;9.40;99.90
17988;DHT22;9119;50.932;5.342;2023-03-16T09:29:05;10.20;99.90
17988;DHT22;9119;50.932;5.342;2023-03-16T09:31:32;10.80;99.90
17988;DHT22;9119;50.932;5.342;2023-03-16T09:33:58;11.10;99.90
17988;DHT22;9119;50.932;5.342;2023-03-16T09:36:25;11.20;99.90
17988;DHT22;9119;50.932;5.342;2023-03-16T09:38:51;10.90;99.90
17988;DHT22;9119;50.932;5.342;2023-03-16T09:46:34;11.10;99.90
17988;DHT22;9119;50.932;5.342;2023-03-16T09:49:01;11.70;99.90
17988;DHT22;9119;50.932;5.342;2023-03-16T09:54:23;12.20;99.90
17988;DHT22;9119;50.932;5.342;2023-03-16T09:56:51;12.30;99.90
17988;DHT22;9119;50.932;5.342;2023-03-16T09:59:18;12.40;99.90
17988;DHT22;9119;50.932;5.342;2023-03-16T10:06:54;11.10;99.90
17988;DHT22;9119;50.932;5.342;2023-03-16T10:11:57;11.10;99.90
17988;DHT22;9119;50.932;5.342;2023-03-16T10:17:20;11.30;99.90
17988;DHT22;9119;50.932;5.342;2023-03-16T10:19:52;11.50;99.90
17988;DHT22;9119;50.932;5.342;2023-03-16T10:22:20;11.50;99.90
17988;DHT22;9119;50.932;5.342;2023-03-16T10:25:03;11.20;99.90
17988;DHT22;9119;50.932;5.342;2023-03-16T10:27:34;11.10;99.90
17988;DHT22;9119;50.932;5.342;2023-03-16T10:30:03;11.10;99.90
17988;DHT22;9119;50.932;5.342;2023-03-16T10:32:31;11.10;99.90
17988;DHT22;9119;50.932;5.342;2023-03-16T10:35:06;11.30;99.90
17988;DHT22;9119;50.932;5.342;2023-03-16T10:37:37;11.50;99.90
17988;DHT22;9119;50.932;5.342;2023-03-16T10:40:07;11.40;99.90
17988;DHT22;9119;50.932;5.342;2023-03-16T10:42:36;11.40;99.90
17988;DHT22;9119;50.932;5.342;2023-03-16T10:45:03;11.40;99.90
17988;DHT22;9119;50.932;5.342;2023-03-16T10:47:32;11.50;99.90
17988;DHT22;9119;50.932;5.342;2023-03-16T10:49:58;11.40;99.90
17988;DHT22;9119;50.932;5.342;2023-03-16T10:52:39;11.30;99.90
17988;DHT22;9119;50.932;5.342;2023-03-16T10:55:16;11.40;99.90
17988;DHT22;9119;50.932;5.342;2023-03-16T10:57:48;11.40;99.90
17988;DHT22;9119;50.932;5.342;2023-03-16T11:00:19;11.20;99.90
17988;DHT22;9119;50.932;5.342;2023-03-16T11:02:47;11.30;99.90
17988;DHT22;9119;50.932;5.342;2023-03-16T11:10:37;11.50;99.90
17988;DHT22;9119;50.932;5.342;2023-03-16T11:13:17;11.50;99.90
17988;DHT22;9119;50.932;5.342;2023-03-16T11:18:30;11.60;99.90
17988;DHT22;9119;50.932;5.342;2023-03-16T11:21:07;11.70;99.90
17988;DHT22;9119;50.932;5.342;2023-03-16T11:23:39;11.80;99.90
17988;DHT22;9119;50.932;5.342;2023-03-16T11:26:16;11.90;99.90
17988;DHT22;9119;50.932;5.342;2023-03-16T11:28:52;12.00;99.90
17988;DHT22;9119;50.932;5.342;2023-03-16T11:31:46;12.20;99.90
17988;DHT22;9119;50.932;5.342;2023-03-16T11:34:17;12.20;99.90
17988;DHT22;9119;50.932;5.342;2023-03-16T11:36:54;12.20;99.90
17988;DHT22;9119;50.932;5.342;2023-03-16T11:39:29;12.20;99.90
17988;DHT22;9119;50.932;5.342;2023-03-16T11:42:36;12.30;99.90
17988;DHT22;9119;50.932;5.342;2023-03-16T11:56:38;12.60;99.90
17988;DHT22;9119;50.932;5.342;2023-03-16T12:10:41;12.70;99.90
17988;DHT22;9119;50.932;5.342;2023-03-16T12:16:18;12.80;99.90
17988;DHT22;9119;50.932;5.342;2023-03-16T12:18:56;12.90;99.90
17988;DHT22;9119;50.932;5.342;2023-03-16T12:21:24;13.10;99.90
17988;DHT22;9119;50.932;5.342;2023-03-16T12:24:01;13.20;99.90
17988;DHT22;9119;50.932;5.342;2023-03-16T12:26:37;13.20;99.90
17988;DHT22;9119;50.932;5.342;2023-03-16T12:29:35;13.10;99.90
17988;DHT22;9119;50.932;5.342;2023-03-16T12:32:18;13.20;99.90
17988;DHT22;9119;50.932;5.342;2023-03-16T12:40:33;13.40;99.90
17988;DHT22;9119;50.932;5.342;2023-03-16T12:43:40;13.50;99.90
17988;DHT22;9119;50.932;5.342;2023-03-16T12:46:12;13.50;99.90
17988;DHT22;9119;50.932;5.342;2023-03-16T12:48:45;13.40;99.90
17988;DHT22;9119;50.932;5.342;2023-03-16T12:51:12;13.40;99.90
17988;DHT22;9119;50.932;5.342;2023-03-16T12:56:10;13.40;99.90
17988;DHT22;9119;50.932;5.342;2023-03-16T12:58:41;13.40;99.90
17988;DHT22;9119;50.932;5.342;2023-03-16T13:01:10;13.50;99.90
17988;DHT22;9119;50.932;5.342;2023-03-16T13:03:37;13.70;99.90
17988;DHT22;9119;50.932;5.342;2023-03-16T13:06:04;13.90;99.90
17988;DHT22;9119;50.932;5.342;2023-03-16T13:08:45;14.00;99.90
17988;DHT22;9119;50.932;5.342;2023-03-16T13:11:12;13.90;99.90
17988;DHT22;9119;50.932;5.342;2023-03-16T13:16:31;13.70;99.90
17988;DHT22;9119;50.932;5.342;2023-03-16T13:18:57;13.70;99.90
17988;DHT22;9119;50.932;5.342;2023-03-16T13:24:21;13.70;99.90
17988;DHT22;9119;50.932;5.342;2023-03-16T13:26:53;13.80;99.90
17988;DHT22;9119;50.932;5.342;2023-03-16T13:29:27;13.90;99.90
17988;DHT22;9119;50.932;5.342;2023-03-16T13:32:13;13.70;99.90
17988;DHT22;9119;50.932;5.342;2023-03-16T13:34:50;13.70;99.90
17988;DHT22;9119;50.932;5.342;2023-03-16T13:37:19;13.70;99.90
17988;DHT22;9119;50.932;5.342;2023-03-16T13:39:56;13.70;99.90
17988;DHT22;9119;50.932;5.342;2023-03-16T13:42:24;13.70;99.90
17988;DHT22;9119;50.932;5.342;2023-03-16T13:44:57;13.70;99.90
17988;DHT22;9119;50.932;5.342;2023-03-16T13:47:27;13.80;99.90
17988;DHT22;9119;50.932;5.342;2023-03-16T13:49:58;13.80;99.90
17988;DHT22;9119;50.932;5.342;2023-03-16T13:52:27;13.90;99.90
17988;DHT22;9119;50.932;5.342;2023-03-16T13:54:56;13.90;99.90
17988;DHT22;9119;50.932;5.342;2023-03-16T13:57:27;14.00;99.90
17988;DHT22;9119;50.932;5.342;2023-03-16T14:02:45;14.00;99.90
17988;DHT22;9119;50.932;5.342;2023-03-16T14:05:27;14.00;99.90
17988;DHT22;9119;50.932;5.342;2023-03-16T14:07:55;14.00;99.90
17988;DHT22;9119;50.932;5.342;2023-03-16T14:10:33;14.10;99.90
17988;DHT22;9119;50.932;5.342;2023-03-16T14:15:46;14.20;99.90
17988;DHT22;9119;50.932;5.342;2023-03-16T14:18:17;14.10;99.90
17988;DHT22;9119;50.932;5.342;2023-03-16T14:20:55;14.10;99.90
17988;DHT22;9119;50.932;5.342;2023-03-16T14:23:27;14.10;99.90
17988;DHT22;9119;50.932;5.342;2023-03-16T14:25:55;14.10;99.90
17988;DHT22;9119;50.932;5.342;2023-03-16T14:28:29;14.10;99.90
17988;DHT22;9119;50.932;5.342;2023-03-16T14:31:02;14.20;99.90
17988;DHT22;9119;50.932;5.342;2023-03-16T14:33:41;14.10;99.90
17988;DHT22;9119;50.932;5.342;2023-03-16T14:36:15;14.20;99.90
17988;DHT22;9119;50.932;5.342;2023-03-16T14:38:45;14.20;99.90
17988;DHT22;9119;50.932;5.342;2023-03-16T14:43:50;14.30;99.90
17988;DHT22;9119;50.932;5.342;2023-03-16T14:48:51;14.30;99.90
17988;DHT22;9119;50.932;5.342;2023-03-16T14:51:16;14.30;99.90
17988;DHT22;9119;50.932;5.342;2023-03-16T14:53:42;14.20;99.90
17988;DHT22;9119;50.932;5.342;2023-03-16T14:56:12;14.30;99.90
17988;DHT22;9119;50.932;5.342;2023-03-16T14:58:40;14.20;99.90
17988;DHT22;9119;50.932;5.342;2023-03-16T15:01:12;14.30;99.90
17988;DHT22;9119;50.932;5.342;2023-03-16T15:03:39;14.30;99.90
17988;DHT22;9119;50.932;5.342;2023-03-16T15:06:08;14.40;99.90
17988;DHT22;9119;50.932;5.342;2023-03-16T15:08:35;14.40;99.90
17988;DHT22;9119;50.932;5.342;2023-03-16T15:11:08;14.50;99.90
17988;DHT22;9119;50.932;5.342;2023-03-16T15:13:35;14.50;99.90
17988;DHT22;9119;50.932;5.342;2023-03-16T15:16:19;14.40;99.90
17988;DHT22;9119;50.932;5.342;2023-03-16T15:18:46;14.40;99.90
17988;DHT22;9119;50.932;5.342;2023-03-16T15:21:26;14.40;99.90
17988;DHT22;9119;50.932;5.342;2023-03-16T15:23:55;14.40;99.90
17988;DHT22;9119;50.932;5.342;2023-03-16T15:26:25;14.50;99.90
17988;DHT22;9119;50.932;5.342;2023-03-16T15:28:53;14.50;99.90
17988;DHT22;9119;50.932;5.342;2023-03-16T15:31:19;14.40;99.90
17988;DHT22;9119;50.932;5.342;2023-03-16T15:33:45;14.40;99.90
17988;DHT22;9119;50.932;5.342;2023-03-16T15:36:19;14.40;99.90
17988;DHT22;9119;50.932;5.342;2023-03-16T15:38:47;14.40;99.90
17988;DHT22;9119;50.932;5.342;2023-03-16T15:41:14;14.30;99.90
17988;DHT22;9119;50.932;5.342;2023-03-16T15:43:40;14.40;99.90
17988;DHT22;9119;50.932;5.342;2023-03-16T15:46:06;14.40;99.90
17988;DHT22;9119;50.932;5.342;2023-03-16T15:48:33;14.50;99.90
17988;DHT22;9119;50.932;5.342;2023-03-16T15:54:09;14.50;99.90
17988;DHT22;9119;50.932;5.342;2023-03-16T15:56:38;14.60;99.90
17988;DHT22;9119;50.932;5.342;2023-03-16T15:59:10;14.50;99.90
17988;DHT22;9119;50.932;5.342;2023-03-16T16:01:44;14.40;99.90
17988;DHT22;9119;50.932;5.342;2023-03-16T16:04:20;14.40;99.90
17988;DHT22;9119;50.932;5.342;2023-03-16T16:06:48;14.30;99.90
17988;DHT22;9119;50.932;5.342;2023-03-16T16:09:14;14.30;99.90
17988;DHT22;9119;50.932;5.342;2023-03-16T16:11:41;14.20;99.90
17988;DHT22;9119;50.932;5.342;2023-03-16T16:14:12;14.20;99.90
17988;DHT22;9119;50.932;5.342;2023-03-16T16:16:41;14.10;99.90
17988;DHT22;9119;50.932;5.342;2023-03-16T16:19:15;14.10;99.90
17988;DHT22;9119;50.932;5.342;2023-03-16T16:21:41;14.00;99.90
17988;DHT22;9119;50.932;5.342;2023-03-16T16:24:07;14.00;99.90
17988;DHT22;9119;50.932;5.342;2023-03-16T16:29:13;13.90;99.90
17988;DHT22;9119;50.932;5.342;2023-03-16T16:31:39;13.90;99.90
17988;DHT22;9119;50.932;5.342;2023-03-16T16:34:11;13.90;99.90
17988;DHT22;9119;50.932;5.342;2023-03-16T16:36:37;13.90;99.90
17988;DHT22;9119;50.932;5.342;2023-03-16T16:39:03;13.80;99.90
17988;DHT22;9119;50.932;5.342;2023-03-16T16:41:31;13.80;99.90
17988;DHT22;9119;50.932;5.342;2023-03-16T16:43:57;13.80;99.90
17988;DHT22;9119;50.932;5.342;2023-03-16T16:46:26;13.80;99.90
17988;DHT22;9119;50.932;5.342;2023-03-16T16:48:57;13.80;99.90
17988;DHT22;9119;50.932;5.342;2023-03-16T16:51:26;13.80;99.90
17988;DHT22;9119;50.932;5.342;2023-03-16T16:53:54;13.70;99.90
17988;DHT22;9119;50.932;5.342;2023-03-16T16:56:28;13.60;99.90
17988;DHT22;9119;50.932;5.342;2023-03-16T16:58:56;13.60;99.90
17988;DHT22;9119;50.932;5.342;2023-03-16T17:01:26;13.60;99.90
17988;DHT22;9119;50.932;5.342;2023-03-16T17:03:53;13.50;99.90
17988;DHT22;9119;50.932;5.342;2023-03-16T17:06:19;13.50;99.90
17988;DHT22;9119;50.932;5.342;2023-03-16T17:08:46;13.40;99.90
17988;DHT22;9119;50.932;5.342;2023-03-16T17:11:24;13.40;99.90
17988;DHT22;9119;50.932;5.342;2023-03-16T17:13:52;13.40;99.90
17988;DHT22;9119;50.932;5.342;2023-03-16T17:16:20;13.30;99.90
17988;DHT22;9119;50.932;5.342;2023-03-16T17:18:51;13.30;99.90
17988;DHT22;9119;50.932;5.342;2023-03-16T17:21:19;13.30;99.90
17988;DHT22;9119;50.932;5.342;2023-03-16T17:23:46;13.20;99.90
17988;DHT22;9119;50.932;5.342;2023-03-16T17:26:17;13.20;99.90
17988;DHT22;9119;50.932;5.342;2023-03-16T17:29:01;13.20;99.90
17988;DHT22;9119;50.932;5.342;2023-03-16T17:31:30;13.20;99.90
17988;DHT22;9119;50.932;5.342;2023-03-16T17:34:00;13.10;99.90
17988;DHT22;9119;50.932;5.342;2023-03-16T17:36:27;13.10;99.90
17988;DHT22;9119;50.932;5.342;2023-03-16T17:38:53;13.00;99.90